Latest Weather Observations for Busselton Jetty

IDW60801

Issued at 6:35 pm WST Wednesday 16 April 2014 (issued every 30 minutes, with the page automatically refreshed every 10 minutes)

About weather observations | Map of weather stations | Latest weather observations for WA | Other Formats
Station Details ID: 009937 Name: BUSSELTON JETTY Lat: -33.63 Lon: 115.34 Height: 3.0 m
Data from the previous 72 hours. | See also: Recent months for locations in Western Australia
Date/Time
WST
Temp
°C
App
Temp
°C
Dew
Point
Rel
Hum
%
Delta-T
°C
Wind Press
QNH
hPa
Press
MSL
hPa
Rain
since 9 am
mm
Dir
 
Spd
km/h
Gust
km/h
Spd
kts
Gust
kts
16/06:30pm - - - - - W 20 26 11 14 - - -
16/06:00pm - - - - - W 22 28 12 15 - - -
16/05:30pm - - - - - WNW 19 20 10 11 - - -
16/05:00pm - - - - - NNW 17 19 9 10 - - -
16/04:30pm - - - - - NNW 19 22 10 12 - - -
16/04:00pm - - - - - NNW 20 26 11 14 - - -
16/03:30pm - - - - - NNW 17 19 9 10 - - -
16/03:00pm - - - - - NNW 15 19 8 10 - - -
16/02:30pm - - - - - N 13 17 7 9 - - -
16/02:00pm - - - - - N 15 17 8 9 - - -
16/01:30pm - - - - - N 13 17 7 9 - - -
16/01:00pm - - - - - N 13 17 7 9 - - -
16/12:30pm - - - - - N 13 17 7 9 - - -
16/12:00pm - - - - - NNE 11 13 6 7 - - -
16/11:30am - - - - - NE 11 13 6 7 - - -
16/11:00am - - - - - NE 6 9 3 5 - - -
16/10:30am - - - - - NE 9 13 5 7 - - -
16/10:00am - - - - - NE 7 7 4 4 - - -
16/09:30am - - - - - NE 7 7 4 4 - - -
16/09:00am - - - - - SSE 9 9 5 5 - - -
16/08:30am - - - - - S 9 15 5 8 - - -
16/08:00am - - - - - S 9 15 5 8 - - -
16/07:30am - - - - - ESE 7 13 4 7 - - -
16/07:00am - - - - - E 9 11 5 6 - - -
16/06:30am - - - - - SE 7 13 4 7 - - -
16/06:00am - - - - - SSW 4 7 2 4 - - -
16/05:30am - - - - - SSE 9 13 5 7 - - -
16/05:00am - - - - - S 9 15 5 8 - - -
16/04:30am - - - - - SSE 11 13 6 7 - - -
16/04:00am - - - - - S 9 13 5 7 - - -
16/03:30am - - - - - S 11 13 6 7 - - -
16/03:00am - - - - - S 13 15 7 8 - - -
16/02:30am - - - - - SSW 13 15 7 8 - - -
16/02:00am - - - - - SSW 13 15 7 8 - - -
16/01:30am - - - - - SSW 13 15 7 8 - - -
16/01:00am - - - - - SSW 13 15 7 8 - - -
16/12:30am - - - - - SW 13 15 7 8 - - -
16/12:00am - - - - - SW 13 15 7 8 - - -
 
Date/Time
WST
Temp
°C
App
Temp
°C
Dew
Point
Rel
Hum
%
Delta-T
°C
Wind Press
QNH
hPa
Press
MSL
hPa
Rain
since 9 am
mm
Dir
 
Spd
km/h
Gust
km/h
Spd
kts
Gust
kts
15/11:30pm - - - - - SW 15 17 8 9 - - -
15/11:00pm - - - - - SW 17 19 9 10 - - -
15/10:30pm - - - - - SW 17 19 9 10 - - -
15/10:00pm - - - - - SW 17 20 9 11 - - -
15/09:30pm - - - - - SW 19 24 10 13 - - -
15/09:00pm - - - - - SW 13 17 7 9 - - -
15/08:30pm - - - - - SW 17 19 9 10 - - -
15/08:00pm - - - - - SW 17 20 9 11 - - -
15/07:30pm - - - - - SW 20 24 11 13 - - -
15/07:00pm - - - - - SW 22 28 12 15 - - -
15/06:30pm - - - - - SW 24 32 13 17 - - -
15/06:00pm - - - - - SW 15 17 8 9 - - -
15/05:30pm - - - - - W 20 26 11 14 - - -
15/05:00pm - - - - - W 22 26 12 14 - - -
15/04:30pm - - - - - WNW 24 30 13 16 - - -
15/04:00pm - - - - - W 28 33 15 18 - - -
15/03:30pm - - - - - W 32 33 17 18 - - -
15/03:00pm - - - - - WNW 28 32 15 17 - - -
15/02:30pm - - - - - WNW 19 28 10 15 - - -
15/02:00pm - - - - - WNW 20 24 11 13 - - -
15/01:30pm - - - - - W 35 39 19 21 - - -
15/01:00pm - - - - - NW 20 28 11 15 - - -
15/12:30pm - - - - - NNW 26 32 14 17 - - -
15/12:00pm - - - - - NNW 20 24 11 13 - - -
15/11:30am - - - - - WNW 20 22 11 12 - - -
15/11:00am - - - - - WNW 20 26 11 14 - - -
15/10:30am - - - - - W 13 15 7 8 - - -
15/10:00am - - - - - W 19 26 10 14 - - -
15/09:30am - - - - - W 17 28 9 15 - - -
15/09:00am - - - - - W 11 13 6 7 - - -
15/08:30am - - - - - WSW 13 15 7 8 - - -
15/08:00am - - - - - W 11 13 6 7 - - -
15/07:30am - - - - - SSW 6 7 3 4 - - -
15/07:00am - - - - - CALM 0 0 0 0 - - -
15/06:30am - - - - - WSW 4 7 2 4 - - -
15/06:00am - - - - - SW 7 9 4 5 - - -
15/05:30am - - - - - W 6 9 3 5 - - -
15/05:00am - - - - - W 7 9 4 5 - - -
15/04:30am - - - - - SSW 2 6 1 3 - - -
15/04:00am - - - - - SW 7 9 4 5 - - -
15/03:30am - - - - - SSW 7 9 4 5 - - -
15/03:00am - - - - - W 9 11 5 6 - - -
15/02:30am - - - - - NNW 9 13 5 7 - - -
15/02:00am - - - - - NNE 9 11 5 6 - - -
15/01:30am - - - - - NNE 9 11 5 6 - - -
15/01:00am - - - - - NNE 6 9 3 5 - - -
15/12:30am - - - - - CALM 0 0 0 0 - - -
15/12:00am - - - - - CALM 0 0 0 0 - - -
 
Date/Time
WST
Temp
°C
App
Temp
°C
Dew
Point
Rel
Hum
%
Delta-T
°C
Wind Press
QNH
hPa
Press
MSL
hPa
Rain
since 9 am
mm
Dir
 
Spd
km/h
Gust
km/h
Spd
kts
Gust
kts
14/11:30pm - - - - - SW 7 9 4 5 - - -
14/11:00pm - - - - - SW 11 11 6 6 - - -
14/10:30pm - - - - - WSW 9 11 5 6 - - -
14/10:00pm - - - - - WSW 15 17 8 9 - - -
14/09:30pm - - - - - WSW 15 17 8 9 - - -
14/09:00pm - - - - - W 13 19 7 10 - - -
14/08:30pm - - - - - W 13 15 7 8 - - -
14/08:00pm - - - - - W 9 11 5 6 - - -
14/07:30pm - - - - - W 11 13 6 7 - - -
14/07:00pm - - - - - WSW 11 13 6 7 - - -
14/06:30pm - - - - - W 20 24 11 13 - - -
14/06:00pm - - - - - W 26 32 14 17 - - -
14/05:30pm - - - - - WNW 28 32 15 17 - - -
14/05:00pm - - - - - WNW 32 35 17 19 - - -
14/04:30pm - - - - - NW 26 28 14 15 - - -
14/04:00pm - - - - - NNW 26 30 14 16 - - -
14/03:30pm - - - - - NNW 26 30 14 16 - - -
14/03:00pm - - - - - N 24 26 13 14 - - -
14/02:30pm - - - - - N 22 24 12 13 - - -
14/02:00pm - - - - - N 17 19 9 10 - - -
14/01:30pm - - - - - N 15 17 8 9 - - -
14/01:00pm - - - - - N 9 13 5 7 - - -
14/12:30pm - - - - - N 7 11 4 6 - - -
14/12:00pm - - - - - N 7 11 4 6 - - -
14/11:30am - - - - - N 11 13 6 7 - - -
14/11:00am - - - - - NNE 11 13 6 7 - - -
14/10:30am - - - - - NNE 9 9 5 5 - - -
14/10:00am - - - - - NE 6 7 3 4 - - -
14/09:30am - - - - - CALM 0 2 0 1 - - -
14/09:00am - - - - - SE 7 9 4 5 - - -
14/08:30am - - - - - SE 9 11 5 6 - - -
14/08:00am - - - - - S 11 13 6 7 - - -
14/07:30am - - - - - SSE 11 13 6 7 - - -
14/07:00am - - - - - SSE 9 11 5 6 - - -
14/06:30am - - - - - SSE 11 13 6 7 - - -
14/06:00am - - - - - SSE 13 17 7 9 - - -
14/05:30am - - - - - ESE 15 19 8 10 - - -
14/05:00am - - - - - SE 15 20 8 11 - - -
14/04:30am - - - - - SE 15 19 8 10 - - -
14/04:00am - - - - - SE 15 17 8 9 - - -
14/03:30am - - - - - SE 15 19 8 10 - - -
14/03:00am - - - - - SE 17 20 9 11 - - -
14/02:30am - - - - - SE 17 20 9 11 - - -
14/02:00am - - - - - SE 19 20 10 11 - - -
14/01:30am - - - - - SE 17 20 9 11 - - -
14/01:00am - - - - - SE 17 19 9 10 - - -
14/12:30am - - - - - SE 19 24 10 13 - - -
14/12:00am - - - - - SE 22 32 12 17 - - -
 
Date/Time
WST
Temp
°C
App
Temp
°C
Dew
Point
Rel
Hum
%
Delta-T
°C
Wind Press
QNH
hPa
Press
MSL
hPa
Rain
since 9 am
mm
Dir
 
Spd
km/h
Gust
km/h
Spd
kts
Gust
kts
13/11:30pm - - - - - SE 22 28 12 15 - - -
13/11:00pm - - - - - SSE 15 19 8 10 - - -
13/10:30pm - - - - - S 13 15 7 8 - - -
13/10:00pm - - - - - S 15 17 8 9 - - -
13/09:30pm - - - - - S 17 22 9 12 - - -
13/09:00pm - - - - - S 22 26 12 14 - - -
13/08:30pm - - - - - S 22 26 12 14 - - -
13/08:00pm - - - - - SSW 24 30 13 16 - - -
13/07:30pm - - - - - SSW 26 30 14 16 - - -
13/07:00pm - - - - - SSW 24 30 13 16 - - -

Other Formats:

Comma delimited format used in spreadsheet applications
http://www.bom.gov.au/fwo/IDW60801/IDW60801.95602.axf

JavaScript Object Notation format (JSON) in row-major order
http://www.bom.gov.au/fwo/IDW60801/IDW60801.95602.json